sensor_id;sensor_type;location;lat;lon;timestamp;pressure;altitude;pressure_sealevel;temperature;humidity
29907;BME280;16776;50.958;10.994;2023-02-02T00:00:50;98444.50;;;2.00;100.00
29907;BME280;16776;50.958;10.994;2023-02-02T00:03:19;98439.44;;;2.01;100.00
29907;BME280;16776;50.958;10.994;2023-02-02T00:05:47;98444.53;;;2.03;100.00
29907;BME280;16776;50.958;10.994;2023-02-02T00:08:14;98442.84;;;2.03;100.00
29907;BME280;16776;50.958;10.994;2023-02-02T00:10:42;98447.06;;;2.06;100.00
29907;BME280;16776;50.958;10.994;2023-02-02T00:13:10;98429.25;;;1.98;100.00
29907;BME280;16776;50.958;10.994;2023-02-02T00:15:36;98440.31;;;2.08;100.00
29907;BME280;16776;50.958;10.994;2023-02-02T00:18:03;98447.09;;;2.09;100.00
29907;BME280;16776;50.958;10.994;2023-02-02T00:20:30;98447.91;;;2.11;100.00
29907;BME280;16776;50.958;10.994;2023-02-02T00:22:58;98425.88;;;1.99;100.00
29907;BME280;16776;50.958;10.994;2023-02-02T00:25:25;98457.28;;;2.15;100.00
29907;BME280;16776;50.958;10.994;2023-02-02T00:27:53;98453.88;;;2.17;100.00
29907;BME280;16776;50.958;10.994;2023-02-02T00:30:20;98457.28;;;2.16;100.00
29907;BME280;16776;50.958;10.994;2023-02-02T00:32:46;98454.75;;;2.16;100.00
29907;BME280;16776;50.958;10.994;2023-02-02T00:35:15;98461.50;;;2.17;100.00
29907;BME280;16776;50.958;10.994;2023-02-02T00:37:41;98465.72;;;2.17;100.00
29907;BME280;16776;50.958;10.994;2023-02-02T00:40:09;98465.75;;;2.18;100.00
29907;BME280;16776;50.958;10.994;2023-02-02T00:42:36;98475.88;;;2.17;100.00
29907;BME280;16776;50.958;10.994;2023-02-02T00:45:04;98467.44;;;2.18;100.00
29907;BME280;16776;50.958;10.994;2023-02-02T00:47:46;98470.81;;;2.17;100.00
29907;BME280;16776;50.958;10.994;2023-02-02T00:50:15;98479.28;;;2.19;100.00
29907;BME280;16776;50.958;10.994;2023-02-02T00:52:43;98473.34;;;2.17;100.00
29907;BME280;16776;50.958;10.994;2023-02-02T00:55:11;98478.44;;;2.17;100.00
29907;BME280;16776;50.958;10.994;2023-02-02T00:57:38;98485.22;;;2.16;100.00
29907;BME280;16776;50.958;10.994;2023-02-02T01:00:11;98489.44;;;2.19;100.00
29907;BME280;16776;50.958;10.994;2023-02-02T01:02:38;98462.31;;;2.03;100.00
29907;BME280;16776;50.958;10.994;2023-02-02T01:05:05;98491.13;;;2.14;100.00
29907;BME280;16776;50.958;10.994;2023-02-02T01:07:31;98492.84;;;2.15;100.00
29907;BME280;16776;50.958;10.994;2023-02-02T01:09:58;98491.97;;;2.14;100.00
29907;BME280;16776;50.958;10.994;2023-02-02T01:12:25;98492.81;;;2.13;100.00
29907;BME280;16776;50.958;10.994;2023-02-02T01:14:51;98491.13;;;2.14;100.00
29907;BME280;16776;50.958;10.994;2023-02-02T01:17:22;98497.06;;;2.14;100.00
29907;BME280;16776;50.958;10.994;2023-02-02T01:19:48;98494.50;;;2.13;100.00
29907;BME280;16776;50.958;10.994;2023-02-02T01:22:15;98503.81;;;2.12;100.00
29907;BME280;16776;50.958;10.994;2023-02-02T01:24:41;98508.91;;;2.12;100.00
29907;BME280;16776;50.958;10.994;2023-02-02T01:27:08;98509.75;;;2.13;100.00
29907;BME280;16776;50.958;10.994;2023-02-02T01:29:34;98491.94;;;2.04;100.00
29907;BME280;16776;50.958;10.994;2023-02-02T01:32:02;98506.34;;;2.11;100.00
29907;BME280;16776;50.958;10.994;2023-02-02T01:34:30;98504.66;;;2.13;100.00
29907;BME280;16776;50.958;10.994;2023-02-02T01:36:57;98502.97;;;2.12;100.00
29907;BME280;16776;50.958;10.994;2023-02-02T01:39:24;98491.09;;;2.11;100.00
29907;BME280;16776;50.958;10.994;2023-02-02T01:41:50;98494.47;;;2.04;100.00
29907;BME280;16776;50.958;10.994;2023-02-02T01:47:24;98497.00;;;2.05;100.00
29907;BME280;16776;50.958;10.994;2023-02-02T01:49:53;98498.75;;;2.09;100.00
29907;BME280;16776;50.958;10.994;2023-02-02T01:52:22;98492.81;;;2.09;100.00
29907;BME280;16776;50.958;10.994;2023-02-02T01:54:51;98492.78;;;2.07;100.00
29907;BME280;16776;50.958;10.994;2023-02-02T01:57:22;98503.81;;;2.12;100.00
29907;BME280;16776;50.958;10.994;2023-02-02T01:59:51;98508.88;;;2.11;100.00
29907;BME280;16776;50.958;10.994;2023-02-02T02:02:19;98519.03;;;2.11;100.00
29907;BME280;16776;50.958;10.994;2023-02-02T02:04:48;98520.75;;;2.10;100.00
29907;BME280;16776;50.958;10.994;2023-02-02T02:07:17;98525.00;;;2.13;100.00
29907;BME280;16776;50.958;10.994;2023-02-02T02:09:43;98530.06;;;2.11;100.00
29907;BME280;16776;50.958;10.994;2023-02-02T02:12:13;98524.16;;;2.14;100.00
29907;BME280;16776;50.958;10.994;2023-02-02T02:14:40;98527.53;;;2.13;100.00
29907;BME280;16776;50.958;10.994;2023-02-02T02:17:40;98530.09;;;2.16;100.00
29907;BME280;16776;50.958;10.994;2023-02-02T02:20:31;98535.16;;;2.17;100.00
29907;BME280;16776;50.958;10.994;2023-02-02T02:26:55;98532.59;;;2.11;100.00
29907;BME280;16776;50.958;10.994;2023-02-02T02:30:06;98542.78;;;2.14;100.00
29907;BME280;16776;50.958;10.994;2023-02-02T02:32:43;98540.22;;;2.08;100.00
29907;BME280;16776;50.958;10.994;2023-02-02T02:35:22;98543.59;;;2.09;100.00
29907;BME280;16776;50.958;10.994;2023-02-02T02:37:59;98542.75;;;2.08;100.00
29907;BME280;16776;50.958;10.994;2023-02-02T02:40:31;98545.28;;;2.07;100.00
29907;BME280;16776;50.958;10.994;2023-02-02T02:43:03;98545.28;;;2.07;100.00
29907;BME280;16776;50.958;10.994;2023-02-02T02:45:32;98552.03;;;2.06;100.00
29907;BME280;16776;50.958;10.994;2023-02-02T02:48:01;98543.59;;;2.09;100.00
29907;BME280;16776;50.958;10.994;2023-02-02T02:50:28;98540.22;;;2.08;100.00
29907;BME280;16776;50.958;10.994;2023-02-02T02:52:59;98550.38;;;2.13;100.00
29907;BME280;16776;50.958;10.994;2023-02-02T02:55:35;98549.53;;;2.12;100.00
29907;BME280;16776;50.958;10.994;2023-02-02T02:58:07;98538.53;;;2.09;100.00
29907;BME280;16776;50.958;10.994;2023-02-02T03:00:47;98543.59;;;2.12;100.00
29907;BME280;16776;50.958;10.994;2023-02-02T03:03:32;98545.31;;;2.10;100.00
29907;BME280;16776;50.958;10.994;2023-02-02T03:06:06;98539.34;;;2.06;100.00
29907;BME280;16776;50.958;10.994;2023-02-02T03:08:44;98535.13;;;2.08;100.00
29907;BME280;16776;50.958;10.994;2023-02-02T03:11:14;98552.03;;;2.05;100.00
29907;BME280;16776;50.958;10.994;2023-02-02T03:13:42;98553.72;;;2.06;100.00
29907;BME280;16776;50.958;10.994;2023-02-02T03:16:09;98552.03;;;2.05;100.00
29907;BME280;16776;50.958;10.994;2023-02-02T03:18:38;98564.78;;;2.09;100.00
29907;BME280;16776;50.958;10.994;2023-02-02T03:21:05;98548.66;;;2.06;100.00
29907;BME280;16776;50.958;10.994;2023-02-02T03:23:31;98552.91;;;2.08;100.00
29907;BME280;16776;50.958;10.994;2023-02-02T03:25:58;98547.84;;;2.08;100.00
29907;BME280;16776;50.958;10.994;2023-02-02T03:28:25;98551.25;;;2.10;100.00
29907;BME280;16776;50.958;10.994;2023-02-02T03:30:53;98557.16;;;2.12;100.00
29907;BME280;16776;50.958;10.994;2023-02-02T03:33:20;98559.69;;;2.12;100.00
29907;BME280;16776;50.958;10.994;2023-02-02T03:35:49;98563.09;;;2.14;100.00
29907;BME280;16776;50.958;10.994;2023-02-02T03:38:15;98563.94;;;2.13;100.00
29907;BME280;16776;50.958;10.994;2023-02-02T03:40:42;98552.94;;;2.14;100.00
29907;BME280;16776;50.958;10.994;2023-02-02T03:43:08;98557.19;;;2.14;100.00
29907;BME280;16776;50.958;10.994;2023-02-02T03:45:35;98557.19;;;2.14;100.00
29907;BME280;16776;50.958;10.994;2023-02-02T03:48:05;98548.69;;;2.09;100.00
29907;BME280;16776;50.958;10.994;2023-02-02T03:50:32;98560.56;;;2.13;100.00
29907;BME280;16776;50.958;10.994;2023-02-02T03:53:00;98566.47;;;2.13;100.00
29907;BME280;16776;50.958;10.994;2023-02-02T03:55:26;98568.16;;;2.11;100.00
29907;BME280;16776;50.958;10.994;2023-02-02T03:57:53;98567.31;;;2.09;100.00
29907;BME280;16776;50.958;10.994;2023-02-02T04:00:20;98568.09;;;1.99;100.00
29907;BME280;16776;50.958;10.994;2023-02-02T04:02:47;98577.44;;;2.06;100.00
29907;BME280;16776;50.958;10.994;2023-02-02T04:05:13;98579.97;;;2.03;100.00
29907;BME280;16776;50.958;10.994;2023-02-02T04:07:40;98579.13;;;2.03;100.00
29907;BME280;16776;50.958;10.994;2023-02-02T04:10:09;98580.81;;;2.02;100.00
29907;BME280;16776;50.958;10.994;2023-02-02T04:12:39;98593.50;;;2.01;100.00
29907;BME280;16776;50.958;10.994;2023-02-02T04:15:06;98601.94;;;1.97;100.00
29907;BME280;16776;50.958;10.994;2023-02-02T04:17:33;98601.94;;;1.95;100.00
29907;BME280;16776;50.958;10.994;2023-02-02T04:20:00;98611.22;;;1.95;100.00
29907;BME280;16776;50.958;10.994;2023-02-02T04:22:27;98613.75;;;1.93;100.00
29907;BME280;16776;50.958;10.994;2023-02-02T04:24:53;98607.81;;;1.93;100.00
29907;BME280;16776;50.958;10.994;2023-02-02T04:27:21;98614.59;;;1.94;100.00
29907;BME280;16776;50.958;10.994;2023-02-02T04:29:50;98574.63;;;1.67;100.00
29907;BME280;16776;50.958;10.994;2023-02-02T04:32:17;98614.59;;;1.91;100.00
29907;BME280;16776;50.958;10.994;2023-02-02T04:34:43;98615.44;;;1.90;100.00
29907;BME280;16776;50.958;10.994;2023-02-02T04:37:10;98596.72;;;1.80;100.00
29907;BME280;16776;50.958;10.994;2023-02-02T04:39:37;98621.34;;;1.89;100.00
29907;BME280;16776;50.958;10.994;2023-02-02T04:42:03;98623.03;;;1.88;100.00
29907;BME280;16776;50.958;10.994;2023-02-02T04:44:31;98637.47;;;1.91;100.00
29907;BME280;16776;50.958;10.994;2023-02-02T04:46:58;98625.56;;;1.88;100.00
29907;BME280;16776;50.958;10.994;2023-02-02T04:49:24;98628.94;;;1.87;100.00
29907;BME280;16776;50.958;10.994;2023-02-02T04:51:51;98630.66;;;1.88;100.00
29907;BME280;16776;50.958;10.994;2023-02-02T04:54:18;98618.78;;;1.87;100.00
29907;BME280;16776;50.958;10.994;2023-02-02T04:56:44;98618.78;;;1.87;100.00
29907;BME280;16776;50.958;10.994;2023-02-02T04:59:11;98617.94;;;1.87;100.00
29907;BME280;16776;50.958;10.994;2023-02-02T05:01:39;98612.03;;;1.89;100.00
29907;BME280;16776;50.958;10.994;2023-02-02T05:04:05;98613.72;;;1.87;100.00
29907;BME280;16776;50.958;10.994;2023-02-02T05:06:32;98612.84;;;1.87;100.00
29907;BME280;16776;50.958;10.994;2023-02-02T05:08:58;98612.03;;;1.88;100.00
29907;BME280;16776;50.958;10.994;2023-02-02T05:11:25;98612.03;;;1.88;100.00
29907;BME280;16776;50.958;10.994;2023-02-02T05:13:53;98611.16;;;1.85;100.00
29907;BME280;16776;50.958;10.994;2023-02-02T05:16:21;98619.63;;;1.88;100.00
29907;BME280;16776;50.958;10.994;2023-02-02T05:18:51;98622.22;;;1.92;100.00
29907;BME280;16776;50.958;10.994;2023-02-02T05:21:18;98625.72;;;2.08;100.00
29907;BME280;16776;50.958;10.994;2023-02-02T05:23:44;98620.84;;;2.40;100.00
29907;BME280;16776;50.958;10.994;2023-02-02T05:26:13;98618.47;;;2.70;100.00
29907;BME280;16776;50.958;10.994;2023-02-02T05:28:41;98628.72;;;2.91;100.00
29907;BME280;16776;50.958;10.994;2023-02-02T05:31:08;98626.25;;;3.05;100.00
29907;BME280;16776;50.958;10.994;2023-02-02T05:33:35;98628.78;;;3.10;100.00
29907;BME280;16776;50.958;10.994;2023-02-02T05:36:03;98627.09;;;3.13;100.00
29907;BME280;16776;50.958;10.994;2023-02-02T05:38:30;98633.88;;;3.08;100.00
29907;BME280;16776;50.958;10.994;2023-02-02T05:40:57;98635.56;;;3.03;100.00
29907;BME280;16776;50.958;10.994;2023-02-02T05:43:24;98636.38;;;2.97;100.00
29907;BME280;16776;50.958;10.994;2023-02-02T05:45:51;98632.13;;;2.92;100.00
29907;BME280;16776;50.958;10.994;2023-02-02T05:48:17;98634.63;;;2.83;100.00
29907;BME280;16776;50.958;10.994;2023-02-02T05:50:47;98639.69;;;2.81;100.00
29907;BME280;16776;50.958;10.994;2023-02-02T05:53:16;98639.69;;;2.74;100.00
29907;BME280;16776;50.958;10.994;2023-02-02T05:55:43;98643.88;;;2.67;100.00
29907;BME280;16776;50.958;10.994;2023-02-02T05:58:10;98650.63;;;2.60;100.00
29907;BME280;16776;50.958;10.994;2023-02-02T06:00:36;98650.59;;;2.57;100.00
29907;BME280;16776;50.958;10.994;2023-02-02T06:03:03;98647.19;;;2.54;100.00
29907;BME280;16776;50.958;10.994;2023-02-02T06:05:29;98658.16;;;2.50;100.00
29907;BME280;16776;50.958;10.994;2023-02-02T06:07:56;98654.78;;;2.48;100.00
29907;BME280;16776;50.958;10.994;2023-02-02T06:10:24;98652.25;;;2.48;100.00
29907;BME280;16776;50.958;10.994;2023-02-02T06:12:51;98651.34;;;2.43;100.00
29907;BME280;16776;50.958;10.994;2023-02-02T06:15:17;98653.91;;;2.41;100.00
29907;BME280;16776;50.958;10.994;2023-02-02T06:17:44;98655.59;;;2.41;100.00
29907;BME280;16776;50.958;10.994;2023-02-02T06:20:11;98658.97;;;2.40;100.00
29907;BME280;16776;50.958;10.994;2023-02-02T06:22:38;98671.66;;;2.38;100.00
29907;BME280;16776;50.958;10.994;2023-02-02T06:25:05;98665.72;;;2.36;100.00
29907;BME280;16776;50.958;10.994;2023-02-02T06:27:34;98666.56;;;2.37;100.00
29907;BME280;16776;50.958;10.994;2023-02-02T06:30:00;98668.25;;;2.35;100.00
29907;BME280;16776;50.958;10.994;2023-02-02T06:32:28;98667.41;;;2.34;100.00
29907;BME280;16776;50.958;10.994;2023-02-02T06:34:55;98672.50;;;2.34;100.00
29907;BME280;16776;50.958;10.994;2023-02-02T06:37:21;98675.88;;;2.33;100.00
29907;BME280;16776;50.958;10.994;2023-02-02T06:39:48;98676.72;;;2.34;100.00
29907;BME280;16776;50.958;10.994;2023-02-02T06:42:15;98681.81;;;2.34;100.00
29907;BME280;16776;50.958;10.994;2023-02-02T06:44:42;98681.81;;;2.35;100.00
29907;BME280;16776;50.958;10.994;2023-02-02T06:47:09;98682.66;;;2.34;100.00
29907;BME280;16776;50.958;10.994;2023-02-02T06:49:36;98680.97;;;2.35;100.00
29907;BME280;16776;50.958;10.994;2023-02-02T06:52:02;98692.84;;;2.36;100.00
29907;BME280;16776;50.958;10.994;2023-02-02T06:54:29;98690.28;;;2.36;100.00
29907;BME280;16776;50.958;10.994;2023-02-02T06:56:55;98691.13;;;2.36;100.00
29907;BME280;16776;50.958;10.994;2023-02-02T06:59:22;98691.13;;;2.35;100.00
29907;BME280;16776;50.958;10.994;2023-02-02T07:01:50;98691.13;;;2.36;100.00
29907;BME280;16776;50.958;10.994;2023-02-02T07:04:20;98688.59;;;2.35;100.00
29907;BME280;16776;50.958;10.994;2023-02-02T07:06:46;98692.81;;;2.33;100.00
29907;BME280;16776;50.958;10.994;2023-02-02T07:09:13;98694.50;;;2.32;100.00
29907;BME280;16776;50.958;10.994;2023-02-02T07:11:39;98697.00;;;2.31;100.00
29907;BME280;16776;50.958;10.994;2023-02-02T07:14:06;98694.47;;;2.31;100.00
29907;BME280;16776;50.958;10.994;2023-02-02T07:16:33;98706.31;;;2.30;100.00
29907;BME280;16776;50.958;10.994;2023-02-02T07:19:01;98701.28;;;2.33;100.00
29907;BME280;16776;50.958;10.994;2023-02-02T07:21:28;98706.34;;;2.32;100.00
29907;BME280;16776;50.958;10.994;2023-02-02T07:23:59;98703.81;;;2.32;100.00
29907;BME280;16776;50.958;10.994;2023-02-02T07:26:26;98697.88;;;2.31;100.00
29907;BME280;16776;50.958;10.994;2023-02-02T07:28:52;98694.50;;;2.32;100.00
29907;BME280;16776;50.958;10.994;2023-02-02T07:31:21;98697.91;;;2.34;100.00
29907;BME280;16776;50.958;10.994;2023-02-02T07:33:48;98705.53;;;2.34;100.00
29907;BME280;16776;50.958;10.994;2023-02-02T07:36:18;98708.94;;;2.38;100.00
29907;BME280;16776;50.958;10.994;2023-02-02T07:38:46;98708.94;;;2.38;100.00
29907;BME280;16776;50.958;10.994;2023-02-02T07:41:14;98708.09;;;2.40;100.00
29907;BME280;16776;50.958;10.994;2023-02-02T07:43:40;98714.03;;;2.41;100.00
29907;BME280;16776;50.958;10.994;2023-02-02T07:46:11;98714.91;;;2.44;100.00
29907;BME280;16776;50.958;10.994;2023-02-02T07:48:38;98718.31;;;2.45;100.00
29907;BME280;16776;50.958;10.994;2023-02-02T07:51:10;98706.44;;;2.41;100.00
29907;BME280;16776;50.958;10.994;2023-02-02T07:53:42;98719.16;;;2.42;100.00
29907;BME280;16776;50.958;10.994;2023-02-02T07:56:10;98729.34;;;2.50;100.00
29907;BME280;16776;50.958;10.994;2023-02-02T07:58:39;98730.22;;;2.53;100.00
29907;BME280;16776;50.958;10.994;2023-02-02T08:01:07;98740.41;;;2.53;100.00
29907;BME280;16776;50.958;10.994;2023-02-02T08:03:37;98708.13;;;2.43;100.00
29907;BME280;16776;50.958;10.994;2023-02-02T08:06:08;98741.28;;;2.58;100.00
29907;BME280;16776;50.958;10.994;2023-02-02T08:08:36;98747.19;;;2.57;100.00
29907;BME280;16776;50.958;10.994;2023-02-02T08:11:07;98742.16;;;2.60;100.00
29907;BME280;16776;50.958;10.994;2023-02-02T08:13:33;98735.31;;;2.56;100.00
29907;BME280;16776;50.958;10.994;2023-02-02T08:16:00;98745.50;;;2.56;100.00
29907;BME280;16776;50.958;10.994;2023-02-02T08:18:26;98745.50;;;2.56;100.00
29907;BME280;16776;50.958;10.994;2023-02-02T08:20:57;98751.47;;;2.60;100.00
29907;BME280;16776;50.958;10.994;2023-02-02T08:23:23;98761.59;;;2.55;100.00
29907;BME280;16776;50.958;10.994;2023-02-02T08:25:50;98783.63;;;2.53;100.00
29907;BME280;16776;50.958;10.994;2023-02-02T08:28:18;98787.00;;;2.54;100.00
29907;BME280;16776;50.958;10.994;2023-02-02T08:30:45;98783.56;;;2.47;100.00
29907;BME280;16776;50.958;10.994;2023-02-02T08:33:11;98780.19;;;2.48;100.00
29907;BME280;16776;50.958;10.994;2023-02-02T08:35:39;98794.59;;;2.48;100.00
29907;BME280;16776;50.958;10.994;2023-02-02T08:38:06;98798.81;;;2.46;100.00
29907;BME280;16776;50.958;10.994;2023-02-02T08:40:33;98803.84;;;2.43;100.00
29907;BME280;16776;50.958;10.994;2023-02-02T08:42:59;98813.19;;;2.42;100.00
29907;BME280;16776;50.958;10.994;2023-02-02T08:45:29;98762.13;;;2.15;100.00
29907;BME280;16776;50.958;10.994;2023-02-02T08:47:56;98816.56;;;2.41;100.00
29907;BME280;16776;50.958;10.994;2023-02-02T08:50:22;98808.91;;;2.40;100.00
29907;BME280;16776;50.958;10.994;2023-02-02T08:52:49;98822.47;;;2.39;100.00
29907;BME280;16776;50.958;10.994;2023-02-02T08:55:15;98824.13;;;2.37;100.00
29907;BME280;16776;50.958;10.994;2023-02-02T08:57:42;98824.13;;;2.37;100.00
29907;BME280;16776;50.958;10.994;2023-02-02T09:00:13;98821.56;;;2.34;100.00
29907;BME280;16776;50.958;10.994;2023-02-02T09:02:41;98819.00;;;2.32;100.00
29907;BME280;16776;50.958;10.994;2023-02-02T09:05:09;98817.31;;;2.30;100.00
29907;BME280;16776;50.958;10.994;2023-02-02T09:07:36;98818.06;;;2.24;100.00
29907;BME280;16776;50.958;10.994;2023-02-02T09:10:03;98817.22;;;2.22;100.00
29907;BME280;16776;50.958;10.994;2023-02-02T09:12:30;98806.19;;;2.20;100.00
29907;BME280;16776;50.958;10.994;2023-02-02T09:14:56;98818.03;;;2.18;100.00
29907;BME280;16776;50.958;10.994;2023-02-02T09:17:23;98812.91;;;2.15;100.00
29907;BME280;16776;50.958;10.994;2023-02-02T09:19:55;98818.81;;;2.12;100.00
29907;BME280;16776;50.958;10.994;2023-02-02T09:22:21;98811.06;;;1.97;100.00
29907;BME280;16776;50.958;10.994;2023-02-02T09:24:48;98832.28;;;2.04;100.00
29907;BME280;16776;50.958;10.994;2023-02-02T09:27:18;98844.13;;;2.03;100.00
29907;BME280;16776;50.958;10.994;2023-02-02T09:29:45;98849.97;;;1.98;100.00
29907;BME280;16776;50.958;10.994;2023-02-02T09:32:12;98858.47;;;1.97;100.00
29907;BME280;16776;50.958;10.994;2023-02-02T09:34:39;98853.31;;;1.94;100.00
29907;BME280;16776;50.958;10.994;2023-02-02T09:37:07;98857.56;;;1.95;100.00
29907;BME280;16776;50.958;10.994;2023-02-02T09:39:33;98858.38;;;1.92;100.00
29907;BME280;16776;50.958;10.994;2023-02-02T09:42:15;98864.38;;;1.96;100.00
29907;BME280;16776;50.958;10.994;2023-02-02T09:45:06;98871.97;;;1.96;100.00
29907;BME280;16776;50.958;10.994;2023-02-02T09:47:44;98857.41;;;1.78;100.00
29907;BME280;16776;50.958;10.994;2023-02-02T09:50:17;98875.31;;;1.92;100.00
29907;BME280;16776;50.958;10.994;2023-02-02T09:52:53;98887.09;;;1.87;100.00
29907;BME280;16776;50.958;10.994;2023-02-02T09:55:27;98893.88;;;1.84;100.00
29907;BME280;16776;50.958;10.994;2023-02-02T09:57:59;98893.88;;;1.84;100.00
29907;BME280;16776;50.958;10.994;2023-02-02T10:00:31;98893.84;;;1.83;100.00
29907;BME280;16776;50.958;10.994;2023-02-02T10:03:01;98900.63;;;1.84;100.00
29907;BME280;16776;50.958;10.994;2023-02-02T10:05:43;98887.09;;;1.83;100.00
29907;BME280;16776;50.958;10.994;2023-02-02T10:08:17;98899.84;;;1.90;100.00
29907;BME280;16776;50.958;10.994;2023-02-02T10:10:47;98899.81;;;1.88;100.00
29907;BME280;16776;50.958;10.994;2023-02-02T10:13:20;98908.31;;;1.90;100.00
29907;BME280;16776;50.958;10.994;2023-02-02T10:15:54;98915.94;;;1.90;100.00
29907;BME280;16776;50.958;10.994;2023-02-02T10:18:33;98910.88;;;1.93;100.00
29907;BME280;16776;50.958;10.994;2023-02-02T10:21:05;98909.19;;;1.94;100.00
29907;BME280;16776;50.958;10.994;2023-02-02T10:23:35;98908.38;;;1.95;100.00
29907;BME280;16776;50.958;10.994;2023-02-02T10:26:07;98913.47;;;1.96;100.00
29907;BME280;16776;50.958;10.994;2023-02-02T10:28:47;98905.91;;;2.01;100.00
29907;BME280;16776;50.958;10.994;2023-02-02T10:31:28;98900.03;;;2.03;100.00
29907;BME280;16776;50.958;10.994;2023-02-02T10:34:06;98911.03;;;2.04;100.00
29907;BME280;16776;50.958;10.994;2023-02-02T10:36:46;98903.41;;;2.04;100.00
29907;BME280;16776;50.958;10.994;2023-02-02T10:39:27;98894.06;;;2.04;100.00
29907;BME280;16776;50.958;10.994;2023-02-02T10:42:05;98899.16;;;2.03;100.00
29907;BME280;16776;50.958;10.994;2023-02-02T10:44:42;98906.72;;;2.00;100.00
29907;BME280;16776;50.958;10.994;2023-02-02T10:47:18;98907.53;;;1.96;100.00
29907;BME280;16776;50.958;10.994;2023-02-02T10:49:48;98904.13;;;1.94;100.00
29907;BME280;16776;50.958;10.994;2023-02-02T10:52:24;98909.19;;;1.94;100.00
29907;BME280;16776;50.958;10.994;2023-02-02T10:54:59;98911.75;;;1.94;100.00
29907;BME280;16776;50.958;10.994;2023-02-02T10:57:44;98915.16;;;1.96;100.00
29907;BME280;16776;50.958;10.994;2023-02-02T11:00:18;98909.19;;;1.94;100.00
29907;BME280;16776;50.958;10.994;2023-02-02T11:02:46;98906.63;;;1.91;100.00
29907;BME280;16776;50.958;10.994;2023-02-02T11:05:20;98909.22;;;1.95;100.00
29907;BME280;16776;50.958;10.994;2023-02-02T11:08:13;98907.50;;;1.94;100.00
29907;BME280;16776;50.958;10.994;2023-02-02T11:10:44;98899.03;;;1.91;100.00
29907;BME280;16776;50.958;10.994;2023-02-02T11:13:15;98897.34;;;1.91;100.00
29907;BME280;16776;50.958;10.994;2023-02-02T11:15:44;98904.88;;;1.87;100.00
29907;BME280;16776;50.958;10.994;2023-02-02T11:18:26;98898.19;;;1.93;100.00
29907;BME280;16776;50.958;10.994;2023-02-02T11:20:53;98903.16;;;1.85;100.00
29907;BME280;16776;50.958;10.994;2023-02-02T11:23:20;98891.31;;;1.83;100.00
29907;BME280;16776;50.958;10.994;2023-02-02T11:25:58;98887.16;;;1.90;100.00
29907;BME280;16776;50.958;10.994;2023-02-02T11:28:26;98891.31;;;1.84;100.00
29907;BME280;16776;50.958;10.994;2023-02-02T11:30:56;98890.47;;;1.84;100.00
29907;BME280;16776;50.958;10.994;2023-02-02T11:33:28;98911.66;;;1.88;100.00
29907;BME280;16776;50.958;10.994;2023-02-02T11:35:56;98907.41;;;1.83;100.00
29907;BME280;16776;50.958;10.994;2023-02-02T11:38:25;98908.25;;;1.85;100.00
29907;BME280;16776;50.958;10.994;2023-02-02T11:40:56;98911.66;;;1.88;100.00
29907;BME280;16776;50.958;10.994;2023-02-02T11:43:27;98909.97;;;1.87;100.00
29907;BME280;16776;50.958;10.994;2023-02-02T11:45:57;98909.13;;;1.88;100.00
29907;BME280;16776;50.958;10.994;2023-02-02T11:48:28;98912.53;;;1.90;100.00
29907;BME280;16776;50.958;10.994;2023-02-02T11:50:57;98931.19;;;1.90;100.00
29907;BME280;16776;50.958;10.994;2023-02-02T11:53:26;98936.31;;;1.95;100.00
29907;BME280;16776;50.958;10.994;2023-02-02T11:55:55;98927.84;;;1.96;100.00
29907;BME280;16776;50.958;10.994;2023-02-02T11:58:25;98925.34;;;1.99;100.00
29907;BME280;16776;50.958;10.994;2023-02-02T12:00:57;98933.00;;;2.00;100.00
29907;BME280;16776;50.958;10.994;2023-02-02T12:03:30;98936.44;;;2.05;100.00
29907;BME280;16776;50.958;10.994;2023-02-02T12:05:58;98931.22;;;1.95;100.00
29907;BME280;16776;50.958;10.994;2023-02-02T12:08:28;98934.72;;;2.03;100.00
29907;BME280;16776;50.958;10.994;2023-02-02T12:10:59;98933.91;;;2.07;100.00
29907;BME280;16776;50.958;10.994;2023-02-02T12:13:45;98939.94;;;2.13;100.00
29907;BME280;16776;50.958;10.994;2023-02-02T12:16:46;98941.63;;;2.14;100.00
29907;BME280;16776;50.958;10.994;2023-02-02T12:19:43;98936.59;;;2.16;100.00
29907;BME280;16776;50.958;10.994;2023-02-02T12:22:26;98934.03;;;2.16;100.00
29907;BME280;16776;50.958;10.994;2023-02-02T12:25:05;98939.13;;;2.16;100.00
29907;BME280;16776;50.958;10.994;2023-02-02T12:27:46;98943.41;;;2.20;100.00
29907;BME280;16776;50.958;10.994;2023-02-02T12:30:25;98929.84;;;2.21;100.00
29907;BME280;16776;50.958;10.994;2023-02-02T12:36:09;98949.44;;;2.28;100.00
29907;BME280;16776;50.958;10.994;2023-02-02T12:38:53;98941.81;;;2.28;100.00
29907;BME280;16776;50.958;10.994;2023-02-02T12:41:35;98944.34;;;2.28;100.00
29907;BME280;16776;50.958;10.994;2023-02-02T12:44:12;98946.03;;;2.31;100.00
29907;BME280;16776;50.958;10.994;2023-02-02T12:46:57;98941.00;;;2.34;100.00
29907;BME280;16776;50.958;10.994;2023-02-02T12:49:41;98941.88;;;2.34;100.00
29907;BME280;16776;50.958;10.994;2023-02-02T12:52:21;98952.00;;;2.33;100.00
29907;BME280;16776;50.958;10.994;2023-02-02T12:55:02;98949.50;;;2.36;100.00
29907;BME280;16776;50.958;10.994;2023-02-02T12:57:40;98961.38;;;2.37;100.00
29907;BME280;16776;50.958;10.994;2023-02-02T13:00:34;98959.72;;;2.40;100.00
29907;BME280;16776;50.958;10.994;2023-02-02T13:03:17;98962.22;;;2.37;100.00
29907;BME280;16776;50.958;10.994;2023-02-02T13:05:57;98961.38;;;2.37;100.00
29907;BME280;16776;50.958;10.994;2023-02-02T13:08:33;98955.41;;;2.36;100.00
29907;BME280;16776;50.958;10.994;2023-02-02T13:11:02;98952.94;;;2.39;100.00
29907;BME280;16776;50.958;10.994;2023-02-02T13:13:51;98956.22;;;2.32;100.00
29907;BME280;16776;50.958;10.994;2023-02-02T13:16:18;98959.69;;;2.36;100.00